Главная страница
METAR-TAF:

METAR-TAF

Аэропорты :

Кейк

Kake, Аляска, США

широта: 56-57N, долгота: 133-54W, высота над уровнем моря: 52 м

Текущие метеонаблюдения

Эта сводка был подготовлена 19 минут назад, в 02:56 UTC
Штиль
Температура 14°C
Влажность 77%
Давление 1026 hPa
Видимость: 16.1 км
ясное небо

METAR: PAFE 180256Z AUTO 00000KT 10SM CLR 14/10 A3031 RMK AO2 SLP276 T01440100 51007

Время: 19:15 (03:15 UTC)


TAF: отсутствует

Метеонаблюдения и прогнозы для более 4000 аэропортов (сводки METAR и TAF).

Имеющиеся станции представлены на карте желтыми и красными точками.

Чтобы увидеть название станции, наведите на нее мышь.

Затем щелкните, чтобы увидеть метеонаблюдения и метеопрогнозы.

Управление картой: чтобы увеличить масштаб, щелкните зеленые кнопки с черным крестиком; чтобы уменьшить масштаб, щелкните зеленую кнопку с тире; для просмотра соседних карт щелкайте зеленые стрелки.


METAR-TAF: